Historyczne dane pomiarowe

Dodano dane terminowe – wersja testowa.

Dane z okresu 1951-2019

Wersja bazy: 1.34 [2019-03-16, lista zmian], aktualizacja planowana na 2019-04-15

Dane meteo z obszaru Polski uzyskane na podstawie danych udostępnionych przez Instytut Meteorologii i Gospodarki Wodnej – Państwowy Instytut Badawczy.

 

Wybierz Datę:    

       

TemperaturaWilgotnośćWiatrCiśnienieOpadyŚniegCzas trwania zjawisk
 Stacja t tx tn tng RH VA  wxwx mslp ppp RRR   cm mm wxwxwxwxwxwxwx
1994-08-14 14.3 17.5 11.3 9.6 73.3- 4.0 6.3---- 3.0------------
1994-08-13 17.6 23.0 15.1 13.7 86.0- 6.7 5.3---- 5.1------------
1994-08-12 19.5 25.5 15.9 15.8 74.0- 5.0 3.0---- 0.0------------
1994-08-11 19.5 25.5 12.8 10.1 75.8- 1.3 3.0---- 1.0------------
1994-08-10 20.1 26.0 15.4 13.2 74.8- 4.3 1.3---- 0.0------------
1994-08-09 17.5 21.2 14.5 11.4 98.3- 8.0 3.0---- 15.0------------
1994-08-08 20.6 24.5 17.2 14.2 77.5- 5.3 2.7---- 0.0------------
1994-08-07 24.0 29.0 17.9 15.8 70.8- 2.3 2.0---- 0.0------------
1994-08-06 26.6 34.5 16.4 12.2 54.0- 3.0 2.3---- 0.0------------
1994-08-05 25.4 32.5 17.9 13.7 65.8- 2.3 2.0---- 0.0------------
1994-08-04 23.8 30.0 16.4 12.7 71.0- 3.3 2.0---- 0.0------------
1994-08-03 23.1 31.0 18.9 16.3 80.5- 6.0 2.0---- 0.0------------
1994-08-02 28.4 34.5 19.9 20.5 58.5- 1.0 1.3---- 0.0------------
1994-08-01 28.0 36.6 18.4 15.8 58.3- 5.7 2.3---- 0.0------------
1994-07-31 27.9 36.0 17.7 13.7 58.0- 2.0 1.3---- 0.0------------
1994-07-30 27.2 36.5 17.4 12.5 58.5- 0.0 0.7---- 0.0------------
1994-07-29 25.5 36.0 14.7 11.1 59.0- 0.0 1.7---- 0.0------------
1994-07-28 25.9 35.0 14.4 11.6 58.8- 0.0 1.7---- 0.0------------
1994-07-27 25.5 34.5 13.3 12.7 47.8- 0.0 2.0---- 0.0------------
1994-07-26 24.4 33.1 13.8 13.4 58.0- 0.0 1.3---- 0.0------------
1994-07-25 24.2 32.5 12.8 9.6 61.0- 0.7 0.7---- 0.0------------
1994-07-24 23.1 31.0 11.8 9.6 59.5- 1.0 0.3---- 0.0------------
1994-07-23 21.9 29.5 11.8 8.6 63.3- 1.0 1.3---- 0.0------------
1994-07-22 20.7 27.5 10.6 6.7 65.8- 0.7 2.0---- 0.0------------
1994-07-21 20.8 28.6 8.4 5.7 54.3- 0.3 1.0---- 0.0------------
1994-07-20 18.6 25.5 9.2 5.7 64.8- 1.0 3.0---- 0.0------------
1994-07-19 19.5 24.6 11.6 9.6 62.5- 1.7 2.7---- 0.0------------
1994-07-18 20.1 26.0 15.5 14.2 69.3- 5.0 3.0---- 0.0------------
1994-07-17 21.8 27.5 15.9 13.7 70.8- 5.3 1.7---- 0.5------------
1994-07-16 24.1 31.5 14.4 11.6 64.8- 1.7 2.0---- 0.0------------
1994-07-15 24.2 30.4 15.4 13.2 56.5- 1.0 1.7---- 0.0------------
1994-07-14 24.1 31.5 16.9 13.7 67.8- 2.0 1.7---- 0.0------------
1994-07-13 24.4 31.0 14.4 10.6 61.8- 0.7 1.7---- 0.0------------
1994-07-12 23.2 29.0 15.4 11.6 64.3- 1.3 2.3---- 0.0------------
1994-07-11 21.1 28.0 12.8 10.6 69.3- 3.3 2.7---- 0.0------------
1994-07-10 18.6 26.0 12.1 10.6 75.8- 1.7 3.0---- 0.0------------
1994-07-09 14.1 15.4 12.8 11.9 97.0- 6.7 4.0---- 5.5------------
1994-07-08 15.2 22.0 13.8 10.6 87.3- 6.3 3.3---- 10.0------------
1994-07-07 19.2 27.0 8.9 6.2 65.8- 1.0 1.7---- 10.5------------
1994-07-06 19.5 26.5 9.2 6.2 64.0- 1.7 1.7---- 0.0------------
1994-07-05 19.3 25.8 11.0 8.0 61.0- 1.0 3.3---- 0.0------------
1994-07-04 19.7 26.5 10.3 6.2 67.5- 0.0 2.3---- 0.0------------
1994-07-03 18.5 25.5 8.4 5.2 61.0- 0.0 1.7---- 0.0------------
1994-07-02 17.1 24.0 7.9 4.2 69.5- 0.0 1.7---- 0.0------------
1994-07-01 17.5 23.5 9.3 6.2 61.8- 1.7 3.0---- 0.0------------
1994-06-30 21.2 26.1 18.9 16.2 79.8- 4.7 4.7---- 0.0------------
1994-06-29 23.9 30.5 14.9 11.6 74.0- 0.0 2.3---- 0.2------------
1994-06-28 21.8 28.5 14.9 11.8 68.3- 0.0 2.0---- 0.0------------
1994-06-27 23.0 29.0 11.3 12.7 74.0- 0.3 3.7---- 0.0------------
1994-06-26 21.7 30.5 8.9 4.7 72.3- 0.0 2.7---- 0.0------------
1994-06-25 15.3 22.5 4.1 1.0 72.0- 0.0 0.7---- 0.0------------
1994-06-24 13.9 18.5 7.7 6.5 70.0- 2.3 6.0---- 0.0------------
1994-06-23 16.5 22.5 13.3 12.2 59.0- 3.0 9.7---- 0.0------------
1994-06-22 17.6 24.5 8.9 6.0 73.8- 6.3 4.0---- 0.0------------
1994-06-21 14.9 20.5 4.9 2.3 72.5- 2.3 2.3---- 0.0------------
1994-06-20 16.3 19.0 14.4 13.2 65.5- 3.3 6.7---- 0.0------------
1994-06-19 16.5 20.0 12.0 11.2 76.3- 6.7 5.3---- 0.0------------
1994-06-18 13.4 18.0 4.7 1.8 74.3- 6.0 2.7---- 0.0------------
1994-06-17 11.8 14.9 8.4 7.7 80.5- 5.0 5.0---- 0.4------------
1994-06-16 11.7 15.4 7.9 3.7 84.0- 7.0 4.3---- 3.0------------
366.7 ms

 

Źródłem pochodzenia danych jest Instytut Meteorologii i Gospodarki Wodnej – Państwowy Instytut Badawczy. Dane Instytutu Meteorologii i Gospodarki Wodnej – Państwowego Instytutu Badawczego zostały przetworzone.

Dane źródłowe można odnaleźć na stronie https://dane.imgw.pl